sensor_id;sensor_type;location;lat;lon;timestamp;temperature;humidity
17849;DHT22;9050;48.746;9.232;2023-03-18T00:00:13;11.90;99.90
17849;DHT22;9050;48.746;9.232;2023-03-18T00:02:41;11.90;99.90
17849;DHT22;9050;48.746;9.232;2023-03-18T00:05:10;11.80;99.90
17849;DHT22;9050;48.746;9.232;2023-03-18T00:07:38;11.70;99.90
17849;DHT22;9050;48.746;9.232;2023-03-18T00:10:06;11.70;99.90
17849;DHT22;9050;48.746;9.232;2023-03-18T00:12:34;11.60;99.90
17849;DHT22;9050;48.746;9.232;2023-03-18T00:15:03;11.60;99.90
17849;DHT22;9050;48.746;9.232;2023-03-18T00:17:31;11.50;99.90
17849;DHT22;9050;48.746;9.232;2023-03-18T00:19:58;11.50;99.90
17849;DHT22;9050;48.746;9.232;2023-03-18T00:22:32;11.50;99.90
17849;DHT22;9050;48.746;9.232;2023-03-18T00:25:00;11.50;99.90
17849;DHT22;9050;48.746;9.232;2023-03-18T00:27:28;11.40;99.90
17849;DHT22;9050;48.746;9.232;2023-03-18T00:29:55;11.40;99.90
17849;DHT22;9050;48.746;9.232;2023-03-18T00:32:22;11.30;99.90
17849;DHT22;9050;48.746;9.232;2023-03-18T00:34:49;11.20;99.90
17849;DHT22;9050;48.746;9.232;2023-03-18T00:37:16;11.10;99.90
17849;DHT22;9050;48.746;9.232;2023-03-18T00:39:56;11.10;99.90
17849;DHT22;9050;48.746;9.232;2023-03-18T00:42:23;11.20;99.90
17849;DHT22;9050;48.746;9.232;2023-03-18T00:44:50;11.10;99.90
17849;DHT22;9050;48.746;9.232;2023-03-18T00:47:17;11.10;99.90
17849;DHT22;9050;48.746;9.232;2023-03-18T00:49:44;11.00;99.90
17849;DHT22;9050;48.746;9.232;2023-03-18T00:52:11;11.00;99.90
17849;DHT22;9050;48.746;9.232;2023-03-18T00:54:38;11.00;99.90
17849;DHT22;9050;48.746;9.232;2023-03-18T00:57:06;11.00;99.90
17849;DHT22;9050;48.746;9.232;2023-03-18T00:59:35;11.00;99.90
17849;DHT22;9050;48.746;9.232;2023-03-18T01:02:02;11.10;99.90
17849;DHT22;9050;48.746;9.232;2023-03-18T01:04:29;11.10;99.90
17849;DHT22;9050;48.746;9.232;2023-03-18T01:06:57;11.20;99.90
17849;DHT22;9050;48.746;9.232;2023-03-18T01:09:24;11.20;99.90
17849;DHT22;9050;48.746;9.232;2023-03-18T01:11:51;11.20;99.90
17849;DHT22;9050;48.746;9.232;2023-03-18T01:14:19;11.20;99.90
17849;DHT22;9050;48.746;9.232;2023-03-18T01:16:46;11.20;99.90
17849;DHT22;9050;48.746;9.232;2023-03-18T01:19:13;11.20;99.90
17849;DHT22;9050;48.746;9.232;2023-03-18T01:21:40;11.20;99.90
17849;DHT22;9050;48.746;9.232;2023-03-18T01:24:07;11.20;99.90
17849;DHT22;9050;48.746;9.232;2023-03-18T01:26:36;11.30;99.90
17849;DHT22;9050;48.746;9.232;2023-03-18T01:29:03;11.20;99.90
17849;DHT22;9050;48.746;9.232;2023-03-18T01:31:31;11.20;99.90
17849;DHT22;9050;48.746;9.232;2023-03-18T01:34:00;11.20;99.90
17849;DHT22;9050;48.746;9.232;2023-03-18T01:36:27;11.20;99.90
17849;DHT22;9050;48.746;9.232;2023-03-18T01:38:55;11.10;99.90
17849;DHT22;9050;48.746;9.232;2023-03-18T01:41:22;11.10;99.90
17849;DHT22;9050;48.746;9.232;2023-03-18T01:43:50;11.10;99.90
17849;DHT22;9050;48.746;9.232;2023-03-18T01:46:35;11.10;99.90
17849;DHT22;9050;48.746;9.232;2023-03-18T01:49:06;11.10;99.90
17849;DHT22;9050;48.746;9.232;2023-03-18T01:51:36;11.10;99.90
17849;DHT22;9050;48.746;9.232;2023-03-18T01:54:04;11.10;99.90
17849;DHT22;9050;48.746;9.232;2023-03-18T01:56:32;11.10;99.90
17849;DHT22;9050;48.746;9.232;2023-03-18T01:59:01;11.10;99.90
17849;DHT22;9050;48.746;9.232;2023-03-18T02:01:31;11.20;99.90
17849;DHT22;9050;48.746;9.232;2023-03-18T02:04:03;11.20;99.90
17849;DHT22;9050;48.746;9.232;2023-03-18T02:06:31;11.20;99.90
17849;DHT22;9050;48.746;9.232;2023-03-18T02:08:58;11.30;99.90
17849;DHT22;9050;48.746;9.232;2023-03-18T02:11:25;11.30;99.90
17849;DHT22;9050;48.746;9.232;2023-03-18T02:13:53;11.20;99.90
17849;DHT22;9050;48.746;9.232;2023-03-18T02:16:23;11.30;99.90
17849;DHT22;9050;48.746;9.232;2023-03-18T02:18:53;11.30;99.90
17849;DHT22;9050;48.746;9.232;2023-03-18T02:21:33;11.20;99.90
17849;DHT22;9050;48.746;9.232;2023-03-18T02:24:08;11.10;99.90
17849;DHT22;9050;48.746;9.232;2023-03-18T02:26:43;11.00;99.90
17849;DHT22;9050;48.746;9.232;2023-03-18T02:29:13;10.90;99.90
17849;DHT22;9050;48.746;9.232;2023-03-18T02:31:41;10.80;99.90
17849;DHT22;9050;48.746;9.232;2023-03-18T02:34:10;10.70;99.90
17849;DHT22;9050;48.746;9.232;2023-03-18T02:36:37;10.60;99.90
17849;DHT22;9050;48.746;9.232;2023-03-18T02:39:06;10.50;99.90
17849;DHT22;9050;48.746;9.232;2023-03-18T02:41:35;10.50;99.90
17849;DHT22;9050;48.746;9.232;2023-03-18T02:44:02;10.40;99.90
17849;DHT22;9050;48.746;9.232;2023-03-18T02:46:34;10.40;99.90
17849;DHT22;9050;48.746;9.232;2023-03-18T02:49:05;10.40;99.90
17849;DHT22;9050;48.746;9.232;2023-03-18T02:51:34;10.40;99.90
17849;DHT22;9050;48.746;9.232;2023-03-18T02:54:05;10.30;99.90
17849;DHT22;9050;48.746;9.232;2023-03-18T02:56:32;10.40;99.90
17849;DHT22;9050;48.746;9.232;2023-03-18T02:58:59;10.30;99.90
17849;DHT22;9050;48.746;9.232;2023-03-18T03:01:26;10.30;99.90
17849;DHT22;9050;48.746;9.232;2023-03-18T03:03:55;10.20;99.90
17849;DHT22;9050;48.746;9.232;2023-03-18T03:06:22;10.30;99.90
17849;DHT22;9050;48.746;9.232;2023-03-18T03:08:50;10.20;99.90
17849;DHT22;9050;48.746;9.232;2023-03-18T03:11:18;10.20;99.90
17849;DHT22;9050;48.746;9.232;2023-03-18T03:13:45;10.20;99.90
17849;DHT22;9050;48.746;9.232;2023-03-18T03:16:12;10.20;99.90
17849;DHT22;9050;48.746;9.232;2023-03-18T03:18:40;10.20;99.90
17849;DHT22;9050;48.746;9.232;2023-03-18T03:21:08;10.20;99.90
17849;DHT22;9050;48.746;9.232;2023-03-18T03:23:36;10.30;99.90
17849;DHT22;9050;48.746;9.232;2023-03-18T03:26:04;10.30;99.90
17849;DHT22;9050;48.746;9.232;2023-03-18T03:28:31;10.30;99.90
17849;DHT22;9050;48.746;9.232;2023-03-18T03:30:59;10.40;99.90
17849;DHT22;9050;48.746;9.232;2023-03-18T03:33:26;10.30;99.90
17849;DHT22;9050;48.746;9.232;2023-03-18T03:35:54;10.30;99.90
17849;DHT22;9050;48.746;9.232;2023-03-18T03:38:24;10.30;99.90
17849;DHT22;9050;48.746;9.232;2023-03-18T03:40:51;10.20;99.90
17849;DHT22;9050;48.746;9.232;2023-03-18T03:43:19;10.20;99.90
17849;DHT22;9050;48.746;9.232;2023-03-18T03:45:46;10.20;99.90
17849;DHT22;9050;48.746;9.232;2023-03-18T03:48:13;10.20;99.90
17849;DHT22;9050;48.746;9.232;2023-03-18T03:50:40;10.10;99.90
17849;DHT22;9050;48.746;9.232;2023-03-18T03:53:07;10.10;99.90
17849;DHT22;9050;48.746;9.232;2023-03-18T03:55:36;10.10;99.90
17849;DHT22;9050;48.746;9.232;2023-03-18T03:58:03;10.00;99.90
17849;DHT22;9050;48.746;9.232;2023-03-18T04:00:31;10.00;99.90
17849;DHT22;9050;48.746;9.232;2023-03-18T04:02:58;10.10;99.90
17849;DHT22;9050;48.746;9.232;2023-03-18T04:05:25;10.10;99.90
17849;DHT22;9050;48.746;9.232;2023-03-18T04:07:54;10.00;99.90
17849;DHT22;9050;48.746;9.232;2023-03-18T04:10:25;10.00;99.90
17849;DHT22;9050;48.746;9.232;2023-03-18T04:12:54;9.90;99.90
17849;DHT22;9050;48.746;9.232;2023-03-18T04:15:21;9.90;99.90
17849;DHT22;9050;48.746;9.232;2023-03-18T04:17:49;9.80;99.90
17849;DHT22;9050;48.746;9.232;2023-03-18T04:20:16;9.90;99.90
17849;DHT22;9050;48.746;9.232;2023-03-18T04:22:44;9.80;99.90
17849;DHT22;9050;48.746;9.232;2023-03-18T04:25:11;9.70;99.90
17849;DHT22;9050;48.746;9.232;2023-03-18T04:27:39;9.70;99.90
17849;DHT22;9050;48.746;9.232;2023-03-18T04:30:10;9.60;99.90
17849;DHT22;9050;48.746;9.232;2023-03-18T04:32:37;9.60;99.90
17849;DHT22;9050;48.746;9.232;2023-03-18T04:35:05;9.70;99.90
17849;DHT22;9050;48.746;9.232;2023-03-18T04:37:32;9.70;99.90
17849;DHT22;9050;48.746;9.232;2023-03-18T04:40:01;9.80;99.90
17849;DHT22;9050;48.746;9.232;2023-03-18T04:42:29;9.70;99.90
17849;DHT22;9050;48.746;9.232;2023-03-18T04:44:56;9.70;99.90
17849;DHT22;9050;48.746;9.232;2023-03-18T04:47:25;9.60;99.90
17849;DHT22;9050;48.746;9.232;2023-03-18T04:49:52;9.60;99.90
17849;DHT22;9050;48.746;9.232;2023-03-18T04:52:20;9.60;99.90
17849;DHT22;9050;48.746;9.232;2023-03-18T04:54:47;9.60;99.90
17849;DHT22;9050;48.746;9.232;2023-03-18T04:57:14;9.60;99.90
17849;DHT22;9050;48.746;9.232;2023-03-18T04:59:42;9.60;99.90
17849;DHT22;9050;48.746;9.232;2023-03-18T05:02:10;9.50;99.90
17849;DHT22;9050;48.746;9.232;2023-03-18T05:04:38;9.50;99.90
17849;DHT22;9050;48.746;9.232;2023-03-18T05:07:05;9.50;99.90
17849;DHT22;9050;48.746;9.232;2023-03-18T05:09:33;9.50;99.90
17849;DHT22;9050;48.746;9.232;2023-03-18T05:12:00;9.60;99.90
17849;DHT22;9050;48.746;9.232;2023-03-18T05:14:27;9.50;99.90
17849;DHT22;9050;48.746;9.232;2023-03-18T05:16:54;9.50;99.90
17849;DHT22;9050;48.746;9.232;2023-03-18T05:19:21;9.60;99.90
17849;DHT22;9050;48.746;9.232;2023-03-18T05:21:49;9.60;99.90
17849;DHT22;9050;48.746;9.232;2023-03-18T05:24:17;9.70;99.90
17849;DHT22;9050;48.746;9.232;2023-03-18T05:26:43;9.60;99.90
17849;DHT22;9050;48.746;9.232;2023-03-18T05:29:10;9.60;99.90
17849;DHT22;9050;48.746;9.232;2023-03-18T05:31:37;9.50;99.90
17849;DHT22;9050;48.746;9.232;2023-03-18T05:34:04;9.40;99.90
17849;DHT22;9050;48.746;9.232;2023-03-18T05:36:31;9.30;99.90
17849;DHT22;9050;48.746;9.232;2023-03-18T05:38:59;9.20;99.90
17849;DHT22;9050;48.746;9.232;2023-03-18T05:41:26;9.20;99.90
17849;DHT22;9050;48.746;9.232;2023-03-18T05:43:53;9.10;99.90
17849;DHT22;9050;48.746;9.232;2023-03-18T05:46:20;9.00;99.90
17849;DHT22;9050;48.746;9.232;2023-03-18T05:48:47;9.00;99.90
17849;DHT22;9050;48.746;9.232;2023-03-18T05:51:14;9.00;99.90
17849;DHT22;9050;48.746;9.232;2023-03-18T05:53:41;8.90;99.90
17849;DHT22;9050;48.746;9.232;2023-03-18T05:56:09;8.90;99.90
17849;DHT22;9050;48.746;9.232;2023-03-18T05:58:36;8.90;99.90
17849;DHT22;9050;48.746;9.232;2023-03-18T06:01:05;8.90;99.90
17849;DHT22;9050;48.746;9.232;2023-03-18T06:03:33;8.90;99.90
17849;DHT22;9050;48.746;9.232;2023-03-18T06:06:00;9.00;99.90
17849;DHT22;9050;48.746;9.232;2023-03-18T06:08:27;9.00;99.90
17849;DHT22;9050;48.746;9.232;2023-03-18T06:10:55;9.00;99.90
17849;DHT22;9050;48.746;9.232;2023-03-18T06:13:23;9.10;99.90
17849;DHT22;9050;48.746;9.232;2023-03-18T06:15:55;9.10;99.90
17849;DHT22;9050;48.746;9.232;2023-03-18T06:18:22;9.10;99.90
17849;DHT22;9050;48.746;9.232;2023-03-18T06:20:49;9.20;99.90
17849;DHT22;9050;48.746;9.232;2023-03-18T06:23:16;9.30;99.90
17849;DHT22;9050;48.746;9.232;2023-03-18T06:25:43;9.40;99.90
17849;DHT22;9050;48.746;9.232;2023-03-18T06:28:11;9.50;99.90
17849;DHT22;9050;48.746;9.232;2023-03-18T06:30:40;9.50;99.90
17849;DHT22;9050;48.746;9.232;2023-03-18T06:33:07;9.70;99.90
17849;DHT22;9050;48.746;9.232;2023-03-18T06:35:34;9.70;99.90
17849;DHT22;9050;48.746;9.232;2023-03-18T06:38:01;9.80;99.90
17849;DHT22;9050;48.746;9.232;2023-03-18T06:40:28;9.90;99.90
17849;DHT22;9050;48.746;9.232;2023-03-18T06:42:55;10.40;99.90
17849;DHT22;9050;48.746;9.232;2023-03-18T06:45:22;11.10;99.90
17849;DHT22;9050;48.746;9.232;2023-03-18T06:47:51;12.00;99.90
17849;DHT22;9050;48.746;9.232;2023-03-18T06:50:18;12.00;99.90
17849;DHT22;9050;48.746;9.232;2023-03-18T06:52:47;12.10;99.90
17849;DHT22;9050;48.746;9.232;2023-03-18T06:55:14;12.10;99.90
17849;DHT22;9050;48.746;9.232;2023-03-18T06:57:41;12.20;99.90
17849;DHT22;9050;48.746;9.232;2023-03-18T07:00:09;12.40;99.90
17849;DHT22;9050;48.746;9.232;2023-03-18T07:02:36;12.40;99.90
17849;DHT22;9050;48.746;9.232;2023-03-18T07:05:06;12.50;99.90
17849;DHT22;9050;48.746;9.232;2023-03-18T07:07:33;12.60;99.90
17849;DHT22;9050;48.746;9.232;2023-03-18T07:10:03;12.80;99.90
17849;DHT22;9050;48.746;9.232;2023-03-18T07:12:30;13.50;99.90
17849;DHT22;9050;48.746;9.232;2023-03-18T07:14:57;15.20;99.90
17849;DHT22;9050;48.746;9.232;2023-03-18T07:17:24;16.90;99.90
17849;DHT22;9050;48.746;9.232;2023-03-18T07:19:51;18.30;99.90
17849;DHT22;9050;48.746;9.232;2023-03-18T07:22:19;19.30;99.90
17849;DHT22;9050;48.746;9.232;2023-03-18T07:24:46;19.30;99.90
17849;DHT22;9050;48.746;9.232;2023-03-18T07:27:13;19.00;99.90
17849;DHT22;9050;48.746;9.232;2023-03-18T07:29:41;18.60;99.90
17849;DHT22;9050;48.746;9.232;2023-03-18T07:32:08;18.10;99.90
17849;DHT22;9050;48.746;9.232;2023-03-18T07:34:35;18.70;99.90
17849;DHT22;9050;48.746;9.232;2023-03-18T07:37:02;19.40;99.90
17849;DHT22;9050;48.746;9.232;2023-03-18T07:39:30;19.60;99.90
17849;DHT22;9050;48.746;9.232;2023-03-18T07:41:58;20.30;99.90
17849;DHT22;9050;48.746;9.232;2023-03-18T07:44:26;19.30;99.90
17849;DHT22;9050;48.746;9.232;2023-03-18T07:46:53;19.80;99.90
17849;DHT22;9050;48.746;9.232;2023-03-18T07:49:20;20.20;99.90
17849;DHT22;9050;48.746;9.232;2023-03-18T07:51:48;19.20;99.90
17849;DHT22;9050;48.746;9.232;2023-03-18T07:54:15;20.00;99.90
17849;DHT22;9050;48.746;9.232;2023-03-18T07:56:44;20.40;99.90
17849;DHT22;9050;48.746;9.232;2023-03-18T07:59:11;20.10;99.90
17849;DHT22;9050;48.746;9.232;2023-03-18T08:01:38;20.90;99.90
17849;DHT22;9050;48.746;9.232;2023-03-18T08:04:05;20.70;99.90
17849;DHT22;9050;48.746;9.232;2023-03-18T08:06:33;20.80;99.90
17849;DHT22;9050;48.746;9.232;2023-03-18T08:09:00;21.20;99.90
17849;DHT22;9050;48.746;9.232;2023-03-18T08:11:28;19.20;99.90
17849;DHT22;9050;48.746;9.232;2023-03-18T08:13:56;18.00;99.90
17849;DHT22;9050;48.746;9.232;2023-03-18T08:16:23;17.90;99.90
17849;DHT22;9050;48.746;9.232;2023-03-18T08:18:50;18.10;99.90
17849;DHT22;9050;48.746;9.232;2023-03-18T08:21:17;16.90;99.90
17849;DHT22;9050;48.746;9.232;2023-03-18T08:23:44;15.90;99.90
17849;DHT22;9050;48.746;9.232;2023-03-18T08:26:12;15.20;99.90
17849;DHT22;9050;48.746;9.232;2023-03-18T08:28:39;14.30;99.90
17849;DHT22;9050;48.746;9.232;2023-03-18T08:31:07;13.90;99.90
17849;DHT22;9050;48.746;9.232;2023-03-18T08:33:34;14.00;99.90
17849;DHT22;9050;48.746;9.232;2023-03-18T08:36:01;13.90;99.90
17849;DHT22;9050;48.746;9.232;2023-03-18T08:38:28;14.00;99.90
17849;DHT22;9050;48.746;9.232;2023-03-18T08:40:55;14.20;99.90
17849;DHT22;9050;48.746;9.232;2023-03-18T08:43:22;14.10;99.90
17849;DHT22;9050;48.746;9.232;2023-03-18T08:45:51;14.20;99.90
17849;DHT22;9050;48.746;9.232;2023-03-18T08:48:21;14.40;99.90
17849;DHT22;9050;48.746;9.232;2023-03-18T08:50:48;14.20;99.90
17849;DHT22;9050;48.746;9.232;2023-03-18T08:53:16;14.40;99.90
17849;DHT22;9050;48.746;9.232;2023-03-18T08:55:43;14.40;99.90
17849;DHT22;9050;48.746;9.232;2023-03-18T08:58:10;14.40;99.90
17849;DHT22;9050;48.746;9.232;2023-03-18T09:00:39;14.70;99.90
17849;DHT22;9050;48.746;9.232;2023-03-18T09:03:06;15.00;99.90
17849;DHT22;9050;48.746;9.232;2023-03-18T09:05:36;14.90;99.90
17849;DHT22;9050;48.746;9.232;2023-03-18T09:08:03;14.90;99.90
17849;DHT22;9050;48.746;9.232;2023-03-18T09:10:31;14.80;99.90
17849;DHT22;9050;48.746;9.232;2023-03-18T09:12:58;14.70;99.90
17849;DHT22;9050;48.746;9.232;2023-03-18T09:15:25;14.90;99.90
17849;DHT22;9050;48.746;9.232;2023-03-18T09:17:52;15.00;99.90
17849;DHT22;9050;48.746;9.232;2023-03-18T09:20:19;14.90;99.90
17849;DHT22;9050;48.746;9.232;2023-03-18T09:22:48;15.00;99.90
17849;DHT22;9050;48.746;9.232;2023-03-18T09:25:17;14.90;99.90
17849;DHT22;9050;48.746;9.232;2023-03-18T09:27:44;14.80;99.90
17849;DHT22;9050;48.746;9.232;2023-03-18T09:30:12;15.00;99.90
17849;DHT22;9050;48.746;9.232;2023-03-18T09:32:40;15.00;99.90
17849;DHT22;9050;48.746;9.232;2023-03-18T09:35:07;15.00;99.90
17849;DHT22;9050;48.746;9.232;2023-03-18T09:37:35;15.00;99.90
17849;DHT22;9050;48.746;9.232;2023-03-18T09:40:05;14.80;99.90
17849;DHT22;9050;48.746;9.232;2023-03-18T09:42:54;14.70;99.90
17849;DHT22;9050;48.746;9.232;2023-03-18T09:45:28;14.90;99.90
17849;DHT22;9050;48.746;9.232;2023-03-18T09:50:50;14.90;99.90
17849;DHT22;9050;48.746;9.232;2023-03-18T09:53:22;15.10;99.90
17849;DHT22;9050;48.746;9.232;2023-03-18T09:55:55;15.10;99.90
17849;DHT22;9050;48.746;9.232;2023-03-18T09:58:29;15.00;99.90
17849;DHT22;9050;48.746;9.232;2023-03-18T10:00:59;15.20;99.90
17849;DHT22;9050;48.746;9.232;2023-03-18T10:03:31;15.20;99.90
17849;DHT22;9050;48.746;9.232;2023-03-18T10:06:04;15.30;99.90
17849;DHT22;9050;48.746;9.232;2023-03-18T10:08:42;15.30;99.90
17849;DHT22;9050;48.746;9.232;2023-03-18T10:11:18;15.50;99.90
17849;DHT22;9050;48.746;9.232;2023-03-18T10:16:43;15.70;99.90
17849;DHT22;9050;48.746;9.232;2023-03-18T10:19:14;15.70;99.90
17849;DHT22;9050;48.746;9.232;2023-03-18T10:21:45;15.80;99.90
17849;DHT22;9050;48.746;9.232;2023-03-18T10:24:24;15.90;99.90
17849;DHT22;9050;48.746;9.232;2023-03-18T10:26:58;15.90;99.90
17849;DHT22;9050;48.746;9.232;2023-03-18T10:29:35;15.90;99.90
17849;DHT22;9050;48.746;9.232;2023-03-18T10:32:09;16.10;99.90
17849;DHT22;9050;48.746;9.232;2023-03-18T10:34:40;16.10;99.90
17849;DHT22;9050;48.746;9.232;2023-03-18T10:37:17;16.20;99.90
17849;DHT22;9050;48.746;9.232;2023-03-18T10:39:46;16.00;99.90
17849;DHT22;9050;48.746;9.232;2023-03-18T10:42:30;16.10;99.90
17849;DHT22;9050;48.746;9.232;2023-03-18T10:45:14;16.10;99.90
17849;DHT22;9050;48.746;9.232;2023-03-18T10:47:46;16.20;99.90
17849;DHT22;9050;48.746;9.232;2023-03-18T10:50:17;16.10;99.90
17849;DHT22;9050;48.746;9.232;2023-03-18T10:52:49;16.00;99.90
17849;DHT22;9050;48.746;9.232;2023-03-18T10:55:23;16.20;99.90
17849;DHT22;9050;48.746;9.232;2023-03-18T10:57:53;16.30;99.90
17849;DHT22;9050;48.746;9.232;2023-03-18T11:00:26;16.30;99.90
17849;DHT22;9050;48.746;9.232;2023-03-18T11:02:54;16.20;99.90
17849;DHT22;9050;48.746;9.232;2023-03-18T11:05:23;16.20;99.90
17849;DHT22;9050;48.746;9.232;2023-03-18T11:07:55;16.10;99.90
17849;DHT22;9050;48.746;9.232;2023-03-18T11:10:25;16.30;99.90
17849;DHT22;9050;48.746;9.232;2023-03-18T11:12:56;16.30;99.90
17849;DHT22;9050;48.746;9.232;2023-03-18T11:15:24;16.20;99.90
17849;DHT22;9050;48.746;9.232;2023-03-18T11:17:51;16.20;99.90
17849;DHT22;9050;48.746;9.232;2023-03-18T11:20:31;16.20;99.90
17849;DHT22;9050;48.746;9.232;2023-03-18T11:23:14;16.40;99.90
17849;DHT22;9050;48.746;9.232;2023-03-18T11:25:45;16.40;99.90
17849;DHT22;9050;48.746;9.232;2023-03-18T11:28:22;16.70;99.90
17849;DHT22;9050;48.746;9.232;2023-03-18T22:03:32;12.10;99.90
17849;DHT22;9050;48.746;9.232;2023-03-18T22:05:59;11.90;99.90
17849;DHT22;9050;48.746;9.232;2023-03-18T22:08:26;11.80;99.90
17849;DHT22;9050;48.746;9.232;2023-03-18T22:10:53;11.80;99.90
17849;DHT22;9050;48.746;9.232;2023-03-18T22:13:23;11.80;99.90
17849;DHT22;9050;48.746;9.232;2023-03-18T22:15:51;11.90;99.90
17849;DHT22;9050;48.746;9.232;2023-03-18T22:18:19;11.90;99.90
17849;DHT22;9050;48.746;9.232;2023-03-18T22:20:49;12.00;99.90
17849;DHT22;9050;48.746;9.232;2023-03-18T22:23:18;12.00;99.90
17849;DHT22;9050;48.746;9.232;2023-03-18T22:25:46;11.80;99.90
17849;DHT22;9050;48.746;9.232;2023-03-18T22:28:14;11.60;99.90
17849;DHT22;9050;48.746;9.232;2023-03-18T22:30:42;11.50;99.90
17849;DHT22;9050;48.746;9.232;2023-03-18T22:33:18;11.40;99.90
17849;DHT22;9050;48.746;9.232;2023-03-18T22:35:47;11.20;99.90
17849;DHT22;9050;48.746;9.232;2023-03-18T22:38:15;11.20;99.90
17849;DHT22;9050;48.746;9.232;2023-03-18T22:40:42;11.20;99.90
17849;DHT22;9050;48.746;9.232;2023-03-18T22:43:21;11.10;99.90
17849;DHT22;9050;48.746;9.232;2023-03-18T22:45:49;11.10;99.90
17849;DHT22;9050;48.746;9.232;2023-03-18T22:48:17;11.00;99.90
17849;DHT22;9050;48.746;9.232;2023-03-18T22:50:43;10.90;99.90
17849;DHT22;9050;48.746;9.232;2023-03-18T22:53:21;11.10;99.90
17849;DHT22;9050;48.746;9.232;2023-03-18T22:55:50;11.10;99.90
17849;DHT22;9050;48.746;9.232;2023-03-18T22:58:19;11.20;99.90
17849;DHT22;9050;48.746;9.232;2023-03-18T23:00:47;11.20;99.90
17849;DHT22;9050;48.746;9.232;2023-03-18T23:03:16;11.30;99.90
17849;DHT22;9050;48.746;9.232;2023-03-18T23:05:44;11.40;99.90
17849;DHT22;9050;48.746;9.232;2023-03-18T23:08:13;11.40;99.90
17849;DHT22;9050;48.746;9.232;2023-03-18T23:10:41;11.50;99.90
17849;DHT22;9050;48.746;9.232;2023-03-18T23:13:16;11.40;99.90
17849;DHT22;9050;48.746;9.232;2023-03-18T23:15:44;11.40;99.90
17849;DHT22;9050;48.746;9.232;2023-03-18T23:18:12;11.40;99.90
17849;DHT22;9050;48.746;9.232;2023-03-18T23:20:40;11.40;99.90
17849;DHT22;9050;48.746;9.232;2023-03-18T23:23:07;11.40;99.90
17849;DHT22;9050;48.746;9.232;2023-03-18T23:25:36;11.30;99.90
17849;DHT22;9050;48.746;9.232;2023-03-18T23:28:03;11.30;99.90
17849;DHT22;9050;48.746;9.232;2023-03-18T23:30:30;11.30;99.90
17849;DHT22;9050;48.746;9.232;2023-03-18T23:32:57;11.20;99.90
17849;DHT22;9050;48.746;9.232;2023-03-18T23:35:24;11.10;99.90
17849;DHT22;9050;48.746;9.232;2023-03-18T23:37:51;11.10;99.90
17849;DHT22;9050;48.746;9.232;2023-03-18T23:40:18;11.10;99.90
17849;DHT22;9050;48.746;9.232;2023-03-18T23:42:46;11.20;99.90
17849;DHT22;9050;48.746;9.232;2023-03-18T23:45:13;11.20;99.90
17849;DHT22;9050;48.746;9.232;2023-03-18T23:47:40;11.30;99.90
17849;DHT22;9050;48.746;9.232;2023-03-18T23:50:08;11.30;99.90
17849;DHT22;9050;48.746;9.232;2023-03-18T23:52:36;11.20;99.90
17849;DHT22;9050;48.746;9.232;2023-03-18T23:55:03;11.20;99.90
17849;DHT22;9050;48.746;9.232;2023-03-18T23:57:30;11.20;99.90
17849;DHT22;9050;48.746;9.232;2023-03-18T23:59:59;11.20;99.90
